Time;durP1;ratioP1;P1;durP2;ratioP2;P2;SDS_P1;SDS_P2;PMS_P1;PMS_P2;Temp;Humidity;BMP_temperature;BMP_pressure;BME280_temperature;BME280_humidity;BME280_pressure;Samples;Min_cycle;Max_cycle;Signal;HPM_P1;HPM_P2
2023/08/23 04:01:23;;;;;;;5.60;2.30;;;18.30;97.30;;;;;;5622008;23;20511;-88
2023/08/23 04:03:49;;;;;;;3.40;3.20;;;18.30;97.30;;;;;;4990822;28;20868;-88
2023/08/23 04:06:14;;;;;;;1.70;1.60;;;18.20;97.30;;;;;;4991458;28;20178;-88
2023/08/23 04:08:40;;;;;;;2.30;2.07;;;18.20;97.30;;;;;;4991735;28;20190;-87
2023/08/23 04:11:05;;;;;;;8.23;2.03;;;18.20;97.30;;;;;;4984762;28;20213;-88
2023/08/23 04:13:31;;;;;;;1.43;1.37;;;18.20;97.30;;;;;;4972403;28;20354;-88
2023/08/23 04:15:56;;;;;;;3.30;1.93;;;18.20;97.30;;;;;;5002828;23;20229;-87
2023/08/23 04:18:22;;;;;;;2.10;1.83;;;18.20;97.30;;;;;;4993312;28;20205;-87
2023/08/23 04:21:00;;;;;;;1.70;1.60;;;18.20;97.30;;;;;;4993093;28;20173;-87
2023/08/23 04:23:26;;;;;;;1.47;1.37;;;18.10;97.30;;;;;;4993330;28;20173;-87
2023/08/23 04:25:52;;;;;;;1.87;1.80;;;18.10;97.30;;;;;;4988206;28;20449;-87
2023/08/23 04:28:17;;;;;;;2.27;2.03;;;18.10;97.30;;;;;;4974008;28;20175;-87
2023/08/23 04:30:43;;;;;;;2.83;1.77;;;18.10;97.30;;;;;;4973506;28;20175;-87
2023/08/23 04:33:10;;;;;;;2.33;2.13;;;18.10;97.30;;;;;;4973636;28;20277;-87
2023/08/23 04:35:36;;;;;;;3.20;2.23;;;18.10;97.30;;;;;;4973581;28;20210;-86
2023/08/23 04:38:01;;;;;;;2.10;1.57;;;18.10;97.30;;;;;;4973410;28;20532;-87
2023/08/23 04:40:28;;;;;;;3.90;2.60;;;18.10;97.30;;;;;;4973367;28;20936;-87
2023/08/23 04:42:53;;;;;;;5.10;2.90;;;18.10;97.30;;;;;;4983882;28;20181;-86
2023/08/23 04:45:19;;;;;;;4.17;2.63;;;18.10;97.30;;;;;;4973065;28;20422;-87
2023/08/23 04:47:44;;;;;;;2.47;1.57;;;18.10;97.30;;;;;;4973698;28;20582;-88
2023/08/23 04:50:10;;;;;;;4.70;3.20;;;18.10;97.30;;;;;;4974408;28;20193;-87
2023/08/23 04:52:35;;;;;;;2.70;2.50;;;18.00;97.30;;;;;;4973505;28;20197;-87
2023/08/23 04:55:01;;;;;;;5.30;3.30;;;18.10;97.30;;;;;;4973025;28;20863;-87
2023/08/23 04:57:26;;;;;;;6.10;2.40;;;18.10;97.30;;;;;;4973048;28;20202;-87
2023/08/23 04:59:53;;;;;;;3.90;3.00;;;18.10;97.30;;;;;;4972932;28;20182;-87
2023/08/23 05:02:19;;;;;;;4.33;2.23;;;18.10;97.30;;;;;;4972998;28;20206;-87
2023/08/23 05:04:44;;;;;;;8.90;1.97;;;18.10;97.30;;;;;;4972991;28;20453;-86
2023/08/23 05:07:10;;;;;;;6.50;3.30;;;18.20;97.30;;;;;;4972816;28;20300;-88
2023/08/23 05:09:35;;;;;;;3.50;2.27;;;18.20;97.30;;;;;;4972684;28;20841;-85
2023/08/23 05:12:00;;;;;;;2.03;1.90;;;18.20;97.30;;;;;;4972659;28;20183;-87
2023/08/23 05:14:26;;;;;;;3.13;2.63;;;18.20;97.30;;;;;;4973399;28;20182;-87
2023/08/23 05:16:52;;;;;;;3.33;2.20;;;18.30;97.30;;;;;;4970648;28;20226;-87
2023/08/23 05:19:17;;;;;;;5.30;3.30;;;18.30;97.30;;;;;;4971841;28;20206;-87
2023/08/23 05:21:43;;;;;;;1.83;1.60;;;18.30;97.30;;;;;;4970972;28;20187;-86
2023/08/23 05:24:08;;;;;;;3.17;2.97;;;18.40;97.30;;;;;;4970737;28;20183;-87
2023/08/23 05:26:34;;;;;;;2.83;2.47;;;18.40;97.30;;;;;;4971961;28;20224;-87
2023/08/23 05:29:02;;;;;;;1.60;1.33;;;18.50;97.30;;;;;;4971155;28;20193;-87
2023/08/23 05:31:28;;;;;;;4.27;2.23;;;18.50;97.30;;;;;;4973522;28;20549;-87
2023/08/23 05:33:53;;;;;;;2.23;2.03;;;18.60;97.30;;;;;;4970774;28;20426;-86
2023/08/23 05:36:19;;;;;;;2.83;2.57;;;18.60;97.30;;;;;;4969598;28;20731;-88
2023/08/23 05:38:46;;;;;;;4.67;3.43;;;18.70;97.30;;;;;;4970987;28;20782;-87
2023/08/23 05:41:11;;;;;;;1.90;1.70;;;18.70;97.30;;;;;;4970647;28;20668;-86
2023/08/23 05:43:37;;;;;;;1.63;1.53;;;18.80;97.30;;;;;;4970598;28;20441;-87
2023/08/23 05:46:03;;;;;;;1.43;1.33;;;18.80;97.30;;;;;;4970055;28;20657;-87
2023/08/23 05:48:28;;;;;;;5.17;2.87;;;18.90;97.30;;;;;;4970346;28;20184;-87
2023/08/23 05:50:54;;;;;;;3.60;2.33;;;18.90;97.30;;;;;;4972063;28;20422;-87
2023/08/23 05:53:20;;;;;;;8.70;2.23;;;18.90;97.30;;;;;;4970316;28;20273;-87
2023/08/23 05:55:49;;;;;;;2.40;1.60;;;19.00;97.30;;;;;;4970174;28;20214;-87
2023/08/23 05:58:18;;;;;;;1.87;1.40;;;19.10;97.30;;;;;;4973615;28;20854;-87
2023/08/23 06:00:45;;;;;;;2.87;2.40;;;19.10;97.30;;;;;;4969073;28;20428;-87
2023/08/23 06:03:10;;;;;;;1.97;1.57;;;19.20;97.30;;;;;;4969361;28;20924;-88
2023/08/23 06:05:36;;;;;;;1.43;1.20;;;19.20;97.30;;;;;;4969708;28;20437;-88
2023/08/23 06:08:03;;;;;;;1.97;1.87;;;19.30;97.30;;;;;;4972094;28;20261;-87
2023/08/23 06:10:29;;;;;;;2.33;2.17;;;19.40;97.30;;;;;;4975158;28;20429;-88
2023/08/23 06:12:55;;;;;;;3.50;3.13;;;19.40;97.30;;;;;;4974083;28;20430;-87
2023/08/23 06:15:20;;;;;;;2.33;1.97;;;19.40;97.30;;;;;;4974061;28;20174;-87
2023/08/23 06:17:46;;;;;;;1.50;1.43;;;19.50;97.30;;;;;;4975274;28;20706;-86
2023/08/23 06:20:11;;;;;;;6.07;2.17;;;19.60;97.30;;;;;;4974226;28;20201;-88
2023/08/23 06:22:37;;;;;;;2.63;1.93;;;19.60;97.30;;;;;;4974589;28;20191;-88
2023/08/23 06:25:05;;;;;;;1.67;1.57;;;19.70;97.30;;;;;;4975387;28;20657;-87
2023/08/23 06:27:30;;;;;;;1.63;1.53;;;19.70;97.30;;;;;;4973766;28;20437;-87
2023/08/23 06:29:56;;;;;;;3.23;3.03;;;19.80;97.30;;;;;;4973875;28;20424;-87
2023/08/23 06:32:25;;;;;;;3.27;2.40;;;19.80;97.30;;;;;;4973684;28;20671;-85
2023/08/23 06:34:50;;;;;;;3.07;2.10;;;19.90;97.30;;;;;;4973757;28;20179;-87
2023/08/23 06:37:16;;;;;;;2.77;1.77;;;20.00;97.30;;;;;;4973572;28;20463;-88
2023/08/23 06:39:41;;;;;;;4.33;1.73;;;20.10;97.30;;;;;;4973468;28;20681;-87
2023/08/23 06:42:07;;;;;;;1.63;1.53;;;20.10;97.30;;;;;;4973402;28;20723;-88
2023/08/23 06:44:32;;;;;;;7.93;3.20;;;20.20;97.30;;;;;;4974860;28;20207;-88
2023/08/23 06:46:58;;;;;;;2.80;2.37;;;20.30;97.30;;;;;;4973151;28;20202;-87
2023/08/23 06:49:24;;;;;;;5.23;2.37;;;20.30;97.30;;;;;;4973584;28;20212;-88
2023/08/23 06:51:49;;;;;;;3.70;1.67;;;20.40;97.30;;;;;;4973149;28;20191;-87
2023/08/23 06:54:15;;;;;;;5.03;2.60;;;20.40;97.30;;;;;;4973608;28;20434;-88
2023/08/23 06:56:40;;;;;;;2.03;1.83;;;20.50;97.30;;;;;;4974445;28;20216;-88
2023/08/23 06:59:06;;;;;;;2.57;2.23;;;20.50;97.30;;;;;;4972875;28;20206;-87
2023/08/23 07:01:31;;;;;;;2.80;2.60;;;20.60;97.30;;;;;;4973036;28;20177;-88
2023/08/23 07:03:57;;;;;;;3.27;1.97;;;20.70;97.30;;;;;;4973392;28;20192;-88
2023/08/23 07:06:22;;;;;;;5.83;1.77;;;20.70;97.30;;;;;;4973090;28;20202;-87
2023/08/23 07:08:48;;;;;;;1.73;1.50;;;20.70;97.30;;;;;;4973281;28;20252;-87
2023/08/23 07:11:13;;;;;;;1.90;1.83;;;20.80;97.30;;;;;;4973048;28;20187;-89
2023/08/23 07:13:39;;;;;;;2.30;2.10;;;20.90;97.30;;;;;;4973250;28;20222;-89
2023/08/23 07:16:05;;;;;;;1.40;1.30;;;20.90;97.30;;;;;;4972557;28;20632;-87
2023/08/23 07:18:33;;;;;;;1.80;1.73;;;21.00;97.30;;;;;;4972761;28;20206;-88
2023/08/23 07:20:59;;;;;;;2.83;2.13;;;21.00;97.30;;;;;;4989295;28;20421;-88
2023/08/23 07:23:24;;;;;;;1.90;1.60;;;21.10;97.30;;;;;;4967532;28;20520;-87
2023/08/23 07:25:50;;;;;;;1.93;1.83;;;21.10;97.30;;;;;;4977271;28;20213;-88
2023/08/23 07:28:16;;;;;;;2.80;2.10;;;21.20;97.30;;;;;;4983008;28;20190;-89
2023/08/23 07:30:46;;;;;;;2.27;1.50;;;21.20;97.30;;;;;;4987657;28;20174;-87
2023/08/23 07:33:11;;;;;;;3.47;1.63;;;21.30;97.30;;;;;;4982258;28;20189;-88
2023/08/23 07:35:37;;;;;;;2.33;2.17;;;21.30;97.30;;;;;;4987070;28;20512;-88
2023/08/23 07:38:02;;;;;;;1.93;1.83;;;21.40;97.30;;;;;;4980824;28;20542;-87
2023/08/23 07:40:28;;;;;;;2.40;1.50;;;21.50;97.30;;;;;;4988195;28;20182;-88
2023/08/23 07:42:53;;;;;;;1.57;1.33;;;21.50;97.30;;;;;;4979603;28;20205;-88
2023/08/23 07:45:20;;;;;;;1.83;1.70;;;21.60;97.30;;;;;;4975602;28;20186;-88
2023/08/23 07:47:46;;;;;;;2.77;1.93;;;21.60;97.30;;;;;;4991515;28;20214;-88
2023/08/23 07:50:12;;;;;;;1.77;1.43;;;21.70;97.20;;;;;;4974318;28;20465;-87
2023/08/23 07:52:37;;;;;;;1.03;0.93;;;21.70;97.30;;;;;;4977015;28;20182;-88
2023/08/23 07:55:05;;;;;;;3.43;2.20;;;21.70;97.30;;;;;;4983413;28;20186;-87
2023/08/23 07:57:30;;;;;;;1.57;1.47;;;21.80;97.30;;;;;;4972261;28;20675;-88
2023/08/23 07:59:56;;;;;;;1.57;1.47;;;21.90;97.30;;;;;;4987640;28;20449;-87
2023/08/23 08:02:22;;;;;;;2.47;1.57;;;21.90;97.30;;;;;;4988806;28;20222;-87
2023/08/23 08:04:48;;;;;;;2.53;1.43;;;22.00;97.30;;;;;;4971920;28;20553;-88
2023/08/23 08:07:13;;;;;;;2.30;1.80;;;22.00;96.90;;;;;;4981151;28;20496;-88
2023/08/23 08:09:39;;;;;;;3.53;2.10;;;22.10;96.80;;;;;;4976789;28;20227;-88
2023/08/23 08:12:04;;;;;;;10.30;1.60;;;22.10;96.80;;;;;;4983260;28;20170;-86
2023/08/23 08:14:30;;;;;;;1.57;1.47;;;22.10;96.80;;;;;;4979579;28;20313;-87
2023/08/23 08:16:56;;;;;;;1.70;1.70;;;22.20;96.80;;;;;;4978654;28;20602;-87
2023/08/23 08:19:21;;;;;;;2.23;2.03;;;22.30;96.80;;;;;;4972851;28;20469;-87
2023/08/23 08:21:47;;;;;;;2.70;1.63;;;22.30;97.30;;;;;;4977694;28;20181;-87
2023/08/23 08:24:13;;;;;;;4.70;2.20;;;22.40;96.50;;;;;;4983042;28;20283;-87
2023/08/23 08:26:38;;;;;;;2.30;2.10;;;22.50;97.00;;;;;;4991348;28;20225;-87
2023/08/23 08:29:03;;;;;;;2.80;2.43;;;22.60;96.00;;;;;;4983140;28;20667;-87
2023/08/23 08:31:30;;;;;;;1.30;1.10;;;22.60;96.40;;;;;;4990678;28;20186;-88
2023/08/23 08:33:56;;;;;;;1.90;1.77;;;22.70;94.20;;;;;;4983482;28;20181;-87
2023/08/23 08:36:22;;;;;;;3.37;1.67;;;22.70;95.10;;;;;;4982979;28;20445;-87
2023/08/23 08:38:47;;;;;;;1.27;1.20;;;22.80;95.70;;;;;;4985528;28;20477;-87
2023/08/23 08:41:15;;;;;;;4.30;1.87;;;22.90;95.30;;;;;;4988729;28;20182;-89
2023/08/23 08:43:41;;;;;;;1.33;1.20;;;22.90;94.40;;;;;;4978360;28;20258;-87
2023/08/23 08:46:07;;;;;;;1.53;1.20;;;23.00;94.60;;;;;;4979522;28;20528;-88
2023/08/23 08:48:32;;;;;;;1.40;1.30;;;23.00;94.00;;;;;;4987744;28;20190;-87
2023/08/23 08:51:01;;;;;;;2.70;1.70;;;23.10;93.70;;;;;;4976253;28;20190;-88
2023/08/23 08:53:30;;;;;;;1.97;1.70;;;23.10;93.50;;;;;;4974391;28;20193;-88
2023/08/23 08:55:56;;;;;;;7.40;2.50;;;23.20;93.60;;;;;;4978925;28;20440;-87
2023/08/23 08:58:23;;;;;;;1.63;1.60;;;23.30;93.30;;;;;;4980156;28;20453;-87
2023/08/23 09:00:51;;;;;;;1.63;1.47;;;23.30;93.40;;;;;;4976602;28;20540;-88
2023/08/23 09:03:19;;;;;;;1.40;1.30;;;23.30;93.20;;;;;;4981754;28;20414;-88
2023/08/23 09:05:50;;;;;;;1.17;1.07;;;23.40;93.00;;;;;;4982488;28;20598;-87
2023/08/23 09:08:15;;;;;;;2.27;1.60;;;23.50;93.00;;;;;;4976464;28;20900;-87
2023/08/23 09:10:41;;;;;;;4.13;1.90;;;23.60;92.50;;;;;;4981308;28;20444;-87
2023/08/23 09:13:07;;;;;;;1.03;1.03;;;23.60;93.80;;;;;;4980943;28;20182;-88
2023/08/23 09:15:32;;;;;;;2.07;1.80;;;23.70;93.60;;;;;;4981355;28;20212;-88
2023/08/23 09:17:59;;;;;;;1.23;1.00;;;23.80;93.40;;;;;;4975527;28;20210;-88
2023/08/23 09:20:24;;;;;;;4.90;2.17;;;23.90;94.90;;;;;;4970936;28;20182;-87
2023/08/23 09:22:54;;;;;;;5.47;1.70;;;24.00;93.90;;;;;;4970789;28;20466;-87
2023/08/23 09:25:20;;;;;;;2.83;2.00;;;24.10;94.00;;;;;;4970403;28;20539;-87
2023/08/23 09:27:46;;;;;;;11.63;1.73;;;24.20;92.50;;;;;;4970470;28;20468;-87
2023/08/23 09:30:12;;;;;;;4.17;1.97;;;24.30;92.40;;;;;;4970902;28;20422;-87
2023/08/23 09:32:39;;;;;;;20.37;1.77;;;24.40;91.60;;;;;;4971762;28;20182;-88
2023/08/23 09:35:12;;;;;;;2.57;1.77;;;24.50;91.30;;;;;;4970351;28;20426;-87
2023/08/23 09:37:42;;;;;;;1.43;1.37;;;24.50;91.30;;;;;;4962813;28;20450;-88
2023/08/23 09:40:18;;;;;;;2.90;2.07;;;24.60;90.70;;;;;;4970625;28;20453;-87
2023/08/23 09:42:44;;;;;;;2.00;1.57;;;24.60;90.10;;;;;;4971081;28;20911;-88
2023/08/23 09:45:16;;;;;;;2.37;1.83;;;24.60;90.40;;;;;;4970307;28;20413;-88
2023/08/23 09:47:49;;;;;;;1.83;1.73;;;24.60;90.70;;;;;;4970334;28;20426;-88
2023/08/23 09:50:15;;;;;;;3.77;2.07;;;24.70;92.10;;;;;;4970100;28;20928;-87
2023/08/23 09:52:43;;;;;;;2.93;2.17;;;24.80;89.20;;;;;;4974599;28;20433;-88
2023/08/23 09:55:11;;;;;;;1.33;1.13;;;24.80;89.60;;;;;;4973202;28;21004;-87
2023/08/23 09:57:38;;;;;;;2.13;1.90;;;24.90;90.60;;;;;;4969769;28;20470;-87
2023/08/23 10:00:04;;;;;;;2.23;1.37;;;25.00;90.50;;;;;;4970205;28;20428;-87
2023/08/23 10:02:30;;;;;;;2.03;1.47;;;25.00;88.70;;;;;;4969872;28;20422;-87
2023/08/23 10:04:56;;;;;;;1.47;1.43;;;25.10;89.40;;;;;;4970330;28;20448;-87
2023/08/23 10:07:24;;;;;;;2.03;1.50;;;25.20;89.70;;;;;;4969961;28;20972;-87
2023/08/23 10:09:50;;;;;;;2.53;1.73;;;25.20;90.40;;;;;;4970541;28;20423;-88
2023/08/23 10:12:17;;;;;;;3.67;2.40;;;25.30;89.20;;;;;;4972889;28;20501;-87
2023/08/23 10:14:46;;;;;;;2.33;1.60;;;25.30;88.30;;;;;;4969979;28;20410;-87
2023/08/23 10:17:15;;;;;;;1.80;1.77;;;25.30;86.90;;;;;;5016840;23;21086;-66
2023/08/23 10:19:41;;;;;;;1.57;1.47;;;25.30;88.30;;;;;;4988988;28;20440;-64
2023/08/23 10:22:07;;;;;;;2.20;1.47;;;25.40;86.40;;;;;;4971891;28;20437;-65
2023/08/23 10:24:34;;;;;;;1.10;1.00;;;25.30;86.80;;;;;;4968320;28;20224;-66
2023/08/23 10:27:09;;;;;;;1.73;1.40;;;25.30;87.80;;;;;;4968185;28;20229;-66
2023/08/23 10:29:38;;;;;;;2.67;1.87;;;25.50;89.30;;;;;;4969549;28;20861;-66
2023/08/23 10:32:08;;;;;;;2.03;1.80;;;25.60;87.90;;;;;;4968897;28;20456;-65
2023/08/23 10:34:35;;;;;;;1.37;1.27;;;25.70;86.90;;;;;;4967284;28;20437;-67
2023/08/23 10:37:14;;;;;;;2.00;1.90;;;25.80;86.00;;;;;;4967472;28;20433;-67
2023/08/23 10:39:51;;;;;;;1.67;1.50;;;25.80;86.60;;;;;;4967616;28;20472;-66
2023/08/23 10:42:18;;;;;;;1.67;1.47;;;25.90;87.80;;;;;;4967390;28;20500;-65
2023/08/23 10:45:07;;;;;;;1.97;1.70;;;26.10;85.80;;;;;;4968492;28;20425;-65
2023/08/23 10:47:36;;;;;;;17.33;1.80;;;26.00;85.60;;;;;;4967681;28;20426;-66
2023/08/23 10:50:03;;;;;;;4.00;1.43;;;26.00;86.70;;;;;;4967725;28;20496;-65
2023/08/23 10:52:30;;;;;;;2.50;1.50;;;26.00;86.60;;;;;;4968550;28;20432;-66
2023/08/23 10:54:56;;;;;;;4.20;2.03;;;26.00;87.50;;;;;;4970329;28;20643;-67
2023/08/23 10:57:22;;;;;;;1.57;1.47;;;26.10;86.20;;;;;;4970953;28;20429;-66
2023/08/23 10:59:48;;;;;;;17.43;1.80;;;26.20;86.90;;;;;;4971102;28;20533;-66
2023/08/23 11:02:13;;;;;;;1.87;1.77;;;26.30;85.40;;;;;;4972345;28;20347;-65
2023/08/23 11:04:39;;;;;;;1.70;1.60;;;26.50;86.20;;;;;;4970718;28;20202;-65
2023/08/23 11:07:06;;;;;;;3.23;1.83;;;26.60;84.90;;;;;;4972636;28;20265;-66
2023/08/23 11:09:33;;;;;;;2.27;2.07;;;26.60;84.00;;;;;;4970757;28;20186;-66
2023/08/23 11:11:59;;;;;;;3.03;1.50;;;26.70;83.80;;;;;;4971217;28;20541;-67
2023/08/23 11:14:24;;;;;;;1.87;1.00;;;26.70;82.90;;;;;;4970817;28;20438;-67
2023/08/23 11:16:50;;;;;;;3.47;1.67;;;26.60;83.40;;;;;;4971043;28;20480;-66
2023/08/23 11:19:16;;;;;;;1.80;1.30;;;26.70;84.50;;;;;;4970919;28;20214;-66
2023/08/23 11:21:42;;;;;;;1.67;1.40;;;26.70;83.20;;;;;;4970799;28;20578;-66
2023/08/23 11:24:07;;;;;;;2.27;2.00;;;26.80;84.00;;;;;;4970880;28;20187;-66
2023/08/23 11:26:36;;;;;;;1.40;1.33;;;26.90;85.20;;;;;;4970462;28;20430;-66
2023/08/23 11:29:03;;;;;;;1.40;1.17;;;27.10;84.30;;;;;;4970629;28;20182;-67
2023/08/23 11:31:29;;;;;;;2.67;1.23;;;27.20;83.60;;;;;;4970857;28;20453;-66
2023/08/23 11:34:05;;;;;;;1.87;1.10;;;27.30;82.50;;;;;;4974014;28;20970;-66
2023/08/23 11:36:32;;;;;;;1.20;1.10;;;27.30;81.50;;;;;;4981716;28;20948;-66
2023/08/23 11:39:02;;;;;;;2.43;1.73;;;27.20;81.00;;;;;;4985762;28;20513;-66
2023/08/23 11:41:28;;;;;;;0.90;0.80;;;27.20;81.90;;;;;;4988094;28;20436;-65
2023/08/23 11:43:54;;;;;;;1.80;1.73;;;27.20;79.90;;;;;;4978378;28;20926;-66
2023/08/23 11:46:20;;;;;;;1.30;1.00;;;27.30;80.90;;;;;;4970546;28;20428;-66
2023/08/23 11:48:46;;;;;;;1.70;1.60;;;27.40;81.40;;;;;;4971946;28;20253;-67
2023/08/23 11:51:11;;;;;;;1.33;1.23;;;27.40;80.80;;;;;;4984112;28;20729;-66
2023/08/23 11:53:47;;;;;;;1.10;1.00;;;27.50;80.90;;;;;;4979416;28;20558;-65
2023/08/23 11:56:14;;;;;;;1.50;1.40;;;27.50;80.60;;;;;;4980060;28;20182;-66
2023/08/23 11:58:39;;;;;;;1.60;1.50;;;27.60;83.00;;;;;;4973681;28;20469;-66
2023/08/23 12:01:05;;;;;;;20.03;1.90;;;27.70;81.80;;;;;;4983422;28;20541;-65
2023/08/23 12:03:31;;;;;;;1.23;1.13;;;27.70;80.70;;;;;;4980405;28;20194;-66
2023/08/23 12:05:57;;;;;;;2.20;1.10;;;27.70;82.50;;;;;;4990101;28;20178;-66
2023/08/23 12:08:22;;;;;;;3.47;1.60;;;27.70;80.30;;;;;;4990633;28;20421;-67
2023/08/23 12:10:48;;;;;;;1.03;0.97;;;27.80;79.20;;;;;;4982950;28;20300;-67
2023/08/23 12:13:14;;;;;;;2.40;1.43;;;27.80;78.40;;;;;;4990545;28;20596;-66
2023/08/23 12:15:40;;;;;;;1.37;1.33;;;27.80;80.00;;;;;;4982509;28;20255;-67
2023/08/23 12:18:05;;;;;;;2.60;1.20;;;27.90;79.70;;;;;;4983317;28;20590;-66
2023/08/23 12:20:31;;;;;;;1.10;0.87;;;28.00;80.20;;;;;;4987271;28;20578;-66
2023/08/23 12:22:56;;;;;;;1.17;1.17;;;28.10;79.90;;;;;;4974541;28;20173;-68
2023/08/23 12:25:22;;;;;;;1.20;1.10;;;28.20;79.70;;;;;;4982368;28;20257;-66
2023/08/23 12:27:48;;;;;;;1.03;0.93;;;28.30;78.90;;;;;;4985912;28;20265;-65
2023/08/23 12:30:13;;;;;;;1.20;1.00;;;28.40;78.30;;;;;;4985868;28;20696;-67
2023/08/23 12:32:39;;;;;;;1.13;1.07;;;28.40;77.50;;;;;;4980689;28;20179;-66
2023/08/23 12:35:05;;;;;;;1.30;1.20;;;28.40;77.30;;;;;;4972471;28;20725;-66
2023/08/23 12:37:30;;;;;;;4.50;1.10;;;28.50;77.80;;;;;;4978480;28;20639;-66
2023/08/23 12:39:56;;;;;;;1.20;1.10;;;28.60;78.70;;;;;;4976602;28;20659;-66
2023/08/23 12:42:22;;;;;;;1.73;1.37;;;28.80;79.60;;;;;;4986530;28;20717;-65
2023/08/23 12:44:48;;;;;;;1.20;1.10;;;28.90;77.70;;;;;;4978625;28;20566;-66
2023/08/23 12:47:14;;;;;;;1.10;1.00;;;28.90;76.80;;;;;;4984468;28;20951;-66
2023/08/23 12:49:39;;;;;;;0.90;0.80;;;28.80;78.00;;;;;;4981613;28;20426;-66
2023/08/23 12:52:06;;;;;;;1.20;1.10;;;28.90;77.80;;;;;;4977000;28;20608;-66
2023/08/23 12:54:31;;;;;;;4.13;2.10;;;28.80;77.30;;;;;;4970040;28;20211;-66
2023/08/23 12:56:57;;;;;;;1.47;1.37;;;28.80;77.40;;;;;;4981873;28;20463;-66
2023/08/23 12:59:23;;;;;;;1.53;1.23;;;28.80;78.90;;;;;;4989595;28;20221;-66
2023/08/23 13:01:48;;;;;;;1.20;1.10;;;28.70;77.50;;;;;;4971945;28;20294;-65
2023/08/23 13:04:14;;;;;;;1.80;1.43;;;28.60;78.10;;;;;;4988064;28;20236;-65
2023/08/23 13:06:40;;;;;;;1.20;1.20;;;28.50;79.40;;;;;;4975976;28;20221;-66
2023/08/23 13:09:05;;;;;;;4.40;1.40;;;28.60;80.80;;;;;;4969903;28;20213;-66
2023/08/23 13:11:31;;;;;;;1.73;1.67;;;28.80;80.40;;;;;;4972011;28;20237;-66
2023/08/23 13:13:56;;;;;;;1.20;1.10;;;28.90;78.70;;;;;;4969461;28;20206;-66
2023/08/23 13:16:22;;;;;;;1.00;0.90;;;29.00;77.70;;;;;;4971716;28;20288;-65
2023/08/23 13:18:48;;;;;;;2.07;1.43;;;29.00;77.10;;;;;;4979173;28;20213;-66
2023/08/23 13:21:13;;;;;;;1.17;1.00;;;29.10;80.40;;;;;;4980944;28;20206;-66
2023/08/23 13:23:39;;;;;;;1.30;1.20;;;29.20;81.20;;;;;;4983593;28;20177;-66
2023/08/23 13:26:04;;;;;;;1.20;1.10;;;29.30;78.10;;;;;;4978335;28;20182;-66
2023/08/23 13:28:30;;;;;;;2.30;1.70;;;29.50;77.90;;;;;;4979169;28;20499;-65
2023/08/23 13:30:57;;;;;;;1.10;1.00;;;29.60;77.80;;;;;;4975376;28;20298;-66
2023/08/23 13:33:23;;;;;;;4.47;0.90;;;29.60;77.30;;;;;;4969908;28;20454;-66
2023/08/23 13:35:49;;;;;;;1.30;1.20;;;29.80;77.10;;;;;;4980015;28;20425;-65
2023/08/23 13:38:14;;;;;;;2.20;2.00;;;29.70;74.30;;;;;;4980974;28;21074;-66
2023/08/23 13:40:40;;;;;;;1.63;1.00;;;29.70;74.90;;;;;;4979249;28;20571;-66
2023/08/23 13:43:06;;;;;;;2.50;1.30;;;29.70;75.90;;;;;;4975933;28;20177;-66
2023/08/23 13:45:32;;;;;;;1.93;1.77;;;29.60;74.80;;;;;;4982620;28;20413;-65
2023/08/23 13:47:58;;;;;;;1.70;1.30;;;29.40;75.00;;;;;;4986485;28;20633;-65
2023/08/23 13:50:23;;;;;;;1.57;1.53;;;29.10;75.50;;;;;;4977700;28;21028;-65
2023/08/23 13:52:49;;;;;;;8.77;1.40;;;28.80;75.20;;;;;;4973903;28;20706;-66
2023/08/23 13:55:15;;;;;;;1.20;1.10;;;28.50;75.70;;;;;;4981177;28;20194;-66
2023/08/23 13:57:41;;;;;;;0.90;0.80;;;28.40;77.30;;;;;;4977236;28;20220;-66
2023/08/23 14:00:08;;;;;;;1.30;1.13;;;28.50;76.50;;;;;;4986212;28;20436;-65
2023/08/23 14:02:34;;;;;;;1.10;1.00;;;28.60;75.00;;;;;;4980576;28;20190;-65
2023/08/23 14:04:59;;;;;;;1.20;1.10;;;28.80;76.00;;;;;;4979370;28;20448;-65
2023/08/23 14:07:26;;;;;;;0.80;0.80;;;29.00;73.70;;;;;;4983604;28;20312;-65
2023/08/23 14:09:51;;;;;;;3.90;1.10;;;29.10;73.60;;;;;;4985605;28;20181;-65
2023/08/23 14:12:17;;;;;;;1.17;1.13;;;29.20;74.00;;;;;;4983996;28;20440;-66
2023/08/23 14:14:43;;;;;;;1.60;0.97;;;29.40;73.20;;;;;;4979232;28;20182;-65
2023/08/23 14:17:08;;;;;;;1.37;1.27;;;29.50;71.80;;;;;;4982100;28;20229;-65
2023/08/23 14:19:44;;;;;;;1.27;1.17;;;29.60;71.60;;;;;;4970123;28;20225;-64
2023/08/23 14:22:09;;;;;;;1.63;1.17;;;29.60;71.90;;;;;;4968116;28;20616;-66
2023/08/23 14:24:35;;;;;;;1.00;0.90;;;29.60;73.00;;;;;;4964970;28;20986;-64
2023/08/23 14:27:01;;;;;;;1.57;1.50;;;29.70;74.60;;;;;;4969792;28;20621;-65
2023/08/23 14:29:26;;;;;;;1.67;1.00;;;29.80;73.90;;;;;;4972604;28;20560;-65
2023/08/23 14:31:52;;;;;;;1.03;0.93;;;29.90;72.20;;;;;;4970607;28;20202;-65
2023/08/23 14:34:17;;;;;;;1.97;0.97;;;29.90;72.50;;;;;;4971745;28;20690;-64
2023/08/23 14:36:43;;;;;;;0.90;0.80;;;30.00;73.40;;;;;;4971046;28;20595;-64
2023/08/23 14:39:13;;;;;;;1.23;1.07;;;30.00;73.80;;;;;;4973427;28;20685;-64
2023/08/23 14:41:39;;;;;;;1.20;1.07;;;30.20;74.30;;;;;;4979808;28;20198;-65
2023/08/23 14:44:04;;;;;;;1.13;1.03;;;30.30;73.30;;;;;;4972375;28;20422;-65
2023/08/23 14:46:30;;;;;;;1.00;0.90;;;30.40;72.20;;;;;;4970735;28;20425;-65
2023/08/23 14:48:57;;;;;;;1.13;1.10;;;30.40;72.30;;;;;;4971192;28;20232;-65
2023/08/23 14:51:23;;;;;;;2.13;2.00;;;30.50;74.70;;;;;;4973027;28;20209;-64
2023/08/23 14:53:48;;;;;;;1.00;0.90;;;30.60;72.90;;;;;;4973307;28;20430;-64
2023/08/23 14:56:15;;;;;;;2.20;1.30;;;30.60;72.10;;;;;;4971975;28;20186;-66
2023/08/23 14:58:40;;;;;;;1.23;1.13;;;30.60;74.40;;;;;;4972257;28;20206;-66
2023/08/23 15:01:06;;;;;;;1.40;1.30;;;30.60;72.20;;;;;;4970887;28;21015;-65
2023/08/23 15:03:32;;;;;;;1.33;1.23;;;30.50;72.40;;;;;;4970243;28;20701;-65
2023/08/23 15:05:58;;;;;;;3.20;2.37;;;30.50;73.70;;;;;;4968469;28;20636;-66
2023/08/23 15:08:27;;;;;;;1.60;1.50;;;30.50;73.90;;;;;;4981792;28;20933;-66
2023/08/23 15:10:56;;;;;;;1.67;1.60;;;30.50;73.40;;;;;;4970714;28;20216;-64
2023/08/23 15:13:22;;;;;;;2.13;1.37;;;30.60;74.30;;;;;;4968497;28;20426;-66
2023/08/23 15:15:56;;;;;;;1.40;1.33;;;30.50;73.50;;;;;;4968773;28;20476;-65
2023/08/23 15:18:21;;;;;;;1.80;1.33;;;30.60;75.00;;;;;;4969891;28;20207;-65
2023/08/23 15:20:47;;;;;;;2.07;1.93;;;30.70;75.00;;;;;;4971883;28;20672;-66
2023/08/23 15:23:12;;;;;;;2.47;1.40;;;30.60;73.80;;;;;;4973221;28;20190;-66
2023/08/23 15:25:38;;;;;;;2.80;1.70;;;30.70;73.90;;;;;;4968197;28;20175;-65
2023/08/23 15:28:04;;;;;;;1.40;1.40;;;30.70;74.40;;;;;;4969294;28;20183;-66
2023/08/23 15:30:29;;;;;;;1.50;1.40;;;30.70;75.00;;;;;;4968331;28;20219;-63
2023/08/23 15:32:55;;;;;;;2.30;1.83;;;30.70;74.50;;;;;;4968245;28;20190;-65
2023/08/23 15:35:20;;;;;;;1.20;1.10;;;30.70;73.70;;;;;;4977506;28;20670;-65
2023/08/23 15:37:47;;;;;;;1.20;1.10;;;30.70;74.70;;;;;;4968875;28;20701;-66
2023/08/23 15:40:12;;;;;;;4.73;1.53;;;30.80;75.00;;;;;;4965992;28;20206;-67
2023/08/23 15:42:38;;;;;;;1.70;1.43;;;30.80;74.60;;;;;;4968510;28;20912;-67
2023/08/23 15:45:05;;;;;;;3.53;1.70;;;30.60;73.40;;;;;;4968340;28;20261;-67
2023/08/23 15:47:31;;;;;;;3.00;1.80;;;30.40;72.70;;;;;;4969461;28;20671;-66
2023/08/23 15:49:56;;;;;;;2.00;1.30;;;30.00;74.00;;;;;;4965606;28;20434;-66
2023/08/23 15:52:22;;;;;;;1.33;1.23;;;29.70;74.80;;;;;;4969065;28;20536;-65
2023/08/23 15:54:48;;;;;;;1.30;1.20;;;29.50;75.40;;;;;;4972919;28;20758;-66
2023/08/23 15:57:17;;;;;;;2.20;1.70;;;29.30;75.90;;;;;;4973949;28;20814;-66
2023/08/23 15:59:42;;;;;;;1.93;1.83;;;29.30;75.90;;;;;;4977094;28;20475;-66
2023/08/23 16:02:08;;;;;;;2.03;1.90;;;29.30;75.30;;;;;;4970140;28;20457;-66
2023/08/23 16:04:33;;;;;;;1.57;1.47;;;29.20;76.90;;;;;;4969146;28;20221;-67
2023/08/23 16:06:59;;;;;;;1.50;1.40;;;29.30;75.20;;;;;;4968507;28;20178;-66
2023/08/23 16:09:28;;;;;;;1.40;1.30;;;29.30;74.40;;;;;;4980504;28;20619;-69
2023/08/23 16:11:53;;;;;;;1.83;1.27;;;29.30;73.70;;;;;;4972888;28;20300;-67
2023/08/23 16:14:19;;;;;;;2.97;1.70;;;29.10;72.50;;;;;;4969882;28;20529;-67
2023/08/23 16:16:44;;;;;;;1.30;1.20;;;29.10;72.90;;;;;;4989151;23;20727;-86
2023/08/23 16:19:10;;;;;;;1.80;1.70;;;29.10;73.50;;;;;;4993284;28;20201;-86
2023/08/23 16:21:35;;;;;;;1.47;1.37;;;29.20;73.80;;;;;;4996802;28;20182;-86
2023/08/23 16:24:02;;;;;;;1.30;1.20;;;29.30;74.10;;;;;;4993387;28;20174;-87
2023/08/23 16:26:27;;;;;;;1.70;1.50;;;29.40;74.50;;;;;;4987695;28;20202;-86
2023/08/23 16:28:53;;;;;;;1.60;1.50;;;29.40;73.90;;;;;;4973414;28;20445;-86
2023/08/23 16:31:18;;;;;;;1.83;1.73;;;29.40;74.20;;;;;;4983313;23;20304;-70
2023/08/23 16:33:44;;;;;;;2.23;1.87;;;29.40;74.70;;;;;;4968522;28;20186;-70
2023/08/23 16:36:10;;;;;;;2.17;1.33;;;29.50;75.20;;;;;;4966978;28;20174;-71
2023/08/23 16:38:35;;;;;;;1.67;1.60;;;29.60;73.20;;;;;;4967488;28;20221;-69
2023/08/23 16:41:01;;;;;;;1.67;1.07;;;29.60;72.70;;;;;;4967240;28;20198;-70